sensor_id;sensor_type;location;lat;lon;timestamp;P1;durP1;ratioP1;P2;durP2;ratioP2
14094;SDS011;18096;48.142;16.290;2023-09-18T00:00:46;5.10;;;4.60;;
14094;SDS011;18096;48.142;16.290;2023-09-18T00:03:16;9.87;;;4.87;;
14094;SDS011;18096;48.142;16.290;2023-09-18T00:05:44;6.22;;;4.40;;
14094;SDS011;18096;48.142;16.290;2023-09-18T00:08:10;4.30;;;3.88;;
14094;SDS011;18096;48.142;16.290;2023-09-18T00:10:36;4.60;;;4.17;;
14094;SDS011;18096;48.142;16.290;2023-09-18T00:13:02;6.93;;;4.30;;
14094;SDS011;18096;48.142;16.290;2023-09-18T00:15:27;6.78;;;4.75;;
14094;SDS011;18096;48.142;16.290;2023-09-18T00:17:53;5.17;;;4.67;;
14094;SDS011;18096;48.142;16.290;2023-09-18T00:20:19;5.40;;;4.90;;
14094;SDS011;18096;48.142;16.290;2023-09-18T00:22:45;4.50;;;4.10;;
14094;SDS011;18096;48.142;16.290;2023-09-18T00:25:11;6.43;;;4.10;;
14094;SDS011;18096;48.142;16.290;2023-09-18T00:27:38;7.00;;;5.00;;
14094;SDS011;18096;48.142;16.290;2023-09-18T00:30:04;6.60;;;4.60;;
14094;SDS011;18096;48.142;16.290;2023-09-18T00:32:31;4.93;;;4.53;;
14094;SDS011;18096;48.142;16.290;2023-09-18T00:34:56;6.55;;;4.80;;
14094;SDS011;18096;48.142;16.290;2023-09-18T00:37:22;7.03;;;5.13;;
14094;SDS011;18096;48.142;16.290;2023-09-18T00:39:49;5.50;;;4.15;;
14094;SDS011;18096;48.142;16.290;2023-09-18T00:42:15;6.47;;;4.97;;
14094;SDS011;18096;48.142;16.290;2023-09-18T00:44:43;5.45;;;4.82;;
14094;SDS011;18096;48.142;16.290;2023-09-18T00:47:09;5.20;;;4.70;;
14094;SDS011;18096;48.142;16.290;2023-09-18T00:49:36;6.50;;;5.07;;
14094;SDS011;18096;48.142;16.290;2023-09-18T00:52:05;18.80;;;5.93;;
14094;SDS011;18096;48.142;16.290;2023-09-18T00:54:32;7.03;;;5.10;;
14094;SDS011;18096;48.142;16.290;2023-09-18T00:56:59;6.57;;;4.95;;
14094;SDS011;18096;48.142;16.290;2023-09-18T00:59:25;5.05;;;4.20;;
14094;SDS011;18096;48.142;16.290;2023-09-18T01:01:51;4.87;;;4.47;;
14094;SDS011;18096;48.142;16.290;2023-09-18T01:04:17;5.95;;;4.70;;
14094;SDS011;18096;48.142;16.290;2023-09-18T01:06:44;4.97;;;4.47;;
14094;SDS011;18096;48.142;16.290;2023-09-18T01:09:10;5.63;;;4.40;;
14094;SDS011;18096;48.142;16.290;2023-09-18T01:14:44;4.82;;;4.32;;
14094;SDS011;18096;48.142;16.290;2023-09-18T01:17:10;6.80;;;5.20;;
14094;SDS011;18096;48.142;16.290;2023-09-18T01:19:39;5.25;;;4.22;;
14094;SDS011;18096;48.142;16.290;2023-09-18T01:22:07;4.45;;;4.05;;
14094;SDS011;18096;48.142;16.290;2023-09-18T01:24:34;6.50;;;4.80;;
14094;SDS011;18096;48.142;16.290;2023-09-18T01:27:01;7.10;;;4.75;;
14094;SDS011;18096;48.142;16.290;2023-09-18T01:29:29;5.50;;;4.82;;
14094;SDS011;18096;48.142;16.290;2023-09-18T01:31:55;5.40;;;4.47;;
14094;SDS011;18096;48.142;16.290;2023-09-18T01:34:21;8.83;;;4.50;;
14094;SDS011;18096;48.142;16.290;2023-09-18T01:36:57;5.47;;;4.97;;
14094;SDS011;18096;48.142;16.290;2023-09-18T01:39:23;5.50;;;4.50;;
14094;SDS011;18096;48.142;16.290;2023-09-18T01:41:52;5.55;;;4.70;;
14094;SDS011;18096;48.142;16.290;2023-09-18T01:44:18;6.60;;;4.60;;
14094;SDS011;18096;48.142;16.290;2023-09-18T01:46:44;9.73;;;4.60;;
14094;SDS011;18096;48.142;16.290;2023-09-18T01:49:10;8.07;;;4.40;;
14094;SDS011;18096;48.142;16.290;2023-09-18T01:51:35;5.03;;;4.53;;
14094;SDS011;18096;48.142;16.290;2023-09-18T01:54:01;6.83;;;4.33;;
14094;SDS011;18096;48.142;16.290;2023-09-18T01:56:27;5.25;;;4.75;;
14094;SDS011;18096;48.142;16.290;2023-09-18T01:58:52;5.20;;;4.70;;
14094;SDS011;18096;48.142;16.290;2023-09-18T02:01:18;6.18;;;4.32;;
14094;SDS011;18096;48.142;16.290;2023-09-18T02:03:43;5.50;;;4.97;;
14094;SDS011;18096;48.142;16.290;2023-09-18T02:06:10;5.85;;;5.22;;
14094;SDS011;18096;48.142;16.290;2023-09-18T02:08:36;4.90;;;4.50;;
14094;SDS011;18096;48.142;16.290;2023-09-18T02:11:02;7.03;;;4.43;;
14094;SDS011;18096;48.142;16.290;2023-09-18T02:13:30;5.57;;;5.00;;
14094;SDS011;18096;48.142;16.290;2023-09-18T02:15:56;5.73;;;5.07;;
14094;SDS011;18096;48.142;16.290;2023-09-18T02:18:22;7.55;;;5.05;;
14094;SDS011;18096;48.142;16.290;2023-09-18T02:20:47;5.17;;;4.67;;
14094;SDS011;18096;48.142;16.290;2023-09-18T02:23:14;5.70;;;5.10;;
14094;SDS011;18096;48.142;16.290;2023-09-18T02:25:41;6.60;;;4.57;;
14094;SDS011;18096;48.142;16.290;2023-09-18T02:28:06;9.13;;;5.18;;
14094;SDS011;18096;48.142;16.290;2023-09-18T02:30:32;7.30;;;5.17;;
14094;SDS011;18096;48.142;16.290;2023-09-18T02:32:58;5.22;;;4.72;;
14094;SDS011;18096;48.142;16.290;2023-09-18T02:35:24;6.93;;;5.30;;
14094;SDS011;18096;48.142;16.290;2023-09-18T02:37:50;5.05;;;4.55;;
14094;SDS011;18096;48.142;16.290;2023-09-18T02:40:17;5.50;;;5.00;;
14094;SDS011;18096;48.142;16.290;2023-09-18T02:42:42;6.35;;;4.68;;
14094;SDS011;18096;48.142;16.290;2023-09-18T02:45:08;5.00;;;4.60;;
14094;SDS011;18096;48.142;16.290;2023-09-18T02:47:34;5.00;;;4.50;;
14094;SDS011;18096;48.142;16.290;2023-09-18T02:50:02;6.85;;;4.38;;
14094;SDS011;18096;48.142;16.290;2023-09-18T02:52:30;7.13;;;5.05;;
14094;SDS011;18096;48.142;16.290;2023-09-18T02:54:56;9.37;;;5.47;;
14094;SDS011;18096;48.142;16.290;2023-09-18T02:57:21;5.93;;;4.90;;
14094;SDS011;18096;48.142;16.290;2023-09-18T02:59:47;6.43;;;5.00;;
14094;SDS011;18096;48.142;16.290;2023-09-18T03:02:13;6.68;;;5.57;;
14094;SDS011;18096;48.142;16.290;2023-09-18T03:04:38;8.67;;;5.30;;
14094;SDS011;18096;48.142;16.290;2023-09-18T03:07:04;7.40;;;5.30;;
14094;SDS011;18096;48.142;16.290;2023-09-18T03:09:30;8.23;;;5.82;;
14094;SDS011;18096;48.142;16.290;2023-09-18T03:11:55;6.00;;;5.50;;
14094;SDS011;18096;48.142;16.290;2023-09-18T03:14:21;5.75;;;5.10;;
14094;SDS011;18096;48.142;16.290;2023-09-18T03:16:47;11.90;;;4.87;;
14094;SDS011;18096;48.142;16.290;2023-09-18T03:19:12;5.35;;;4.85;;
14094;SDS011;18096;48.142;16.290;2023-09-18T03:21:38;5.53;;;4.87;;
14094;SDS011;18096;48.142;16.290;2023-09-18T03:24:03;6.43;;;5.55;;
14094;SDS011;18096;48.142;16.290;2023-09-18T03:26:29;6.28;;;4.63;;
14094;SDS011;18096;48.142;16.290;2023-09-18T03:28:55;6.10;;;5.20;;
14094;SDS011;18096;48.142;16.290;2023-09-18T03:31:21;7.63;;;5.20;;
14094;SDS011;18096;48.142;16.290;2023-09-18T03:33:46;6.70;;;5.43;;
14094;SDS011;18096;48.142;16.290;2023-09-18T03:36:12;7.57;;;5.07;;
14094;SDS011;18096;48.142;16.290;2023-09-18T03:38:38;7.75;;;5.93;;
14094;SDS011;18096;48.142;16.290;2023-09-18T03:41:04;12.60;;;7.87;;
14094;SDS011;18096;48.142;16.290;2023-09-18T03:43:30;13.45;;;9.25;;
14094;SDS011;18096;48.142;16.290;2023-09-18T03:46:02;18.10;;;9.87;;
14094;SDS011;18096;48.142;16.290;2023-09-18T03:48:29;18.98;;;10.13;;
14094;SDS011;18096;48.142;16.290;2023-09-18T03:51:01;18.45;;;9.40;;
14094;SDS011;18096;48.142;16.290;2023-09-18T03:53:26;13.40;;;7.87;;
14094;SDS011;18096;48.142;16.290;2023-09-18T03:55:52;8.95;;;7.40;;
14094;SDS011;18096;48.142;16.290;2023-09-18T03:58:18;9.50;;;7.33;;
14094;SDS011;18096;48.142;16.290;2023-09-18T04:00:43;8.57;;;6.93;;
14094;SDS011;18096;48.142;16.290;2023-09-18T04:03:09;12.88;;;7.22;;
14094;SDS011;18096;48.142;16.290;2023-09-18T04:05:34;10.90;;;7.80;;
14094;SDS011;18096;48.142;16.290;2023-09-18T04:08:00;9.10;;;6.38;;
14094;SDS011;18096;48.142;16.290;2023-09-18T04:10:26;8.43;;;6.60;;
14094;SDS011;18096;48.142;16.290;2023-09-18T04:12:51;8.32;;;6.68;;
14094;SDS011;18096;48.142;16.290;2023-09-18T04:15:17;10.20;;;6.87;;
14094;SDS011;18096;48.142;16.290;2023-09-18T04:17:43;9.75;;;7.63;;
14094;SDS011;18096;48.142;16.290;2023-09-18T04:20:10;8.70;;;6.83;;
14094;SDS011;18096;48.142;16.290;2023-09-18T04:22:36;9.02;;;7.20;;
14094;SDS011;18096;48.142;16.290;2023-09-18T04:25:07;12.87;;;7.03;;
14094;SDS011;18096;48.142;16.290;2023-09-18T04:27:32;10.40;;;7.50;;
14094;SDS011;18096;48.142;16.290;2023-09-18T04:29:58;10.53;;;7.33;;
14094;SDS011;18096;48.142;16.290;2023-09-18T04:32:26;15.05;;;7.75;;
14094;SDS011;18096;48.142;16.290;2023-09-18T04:34:52;10.07;;;7.90;;
14094;SDS011;18096;48.142;16.290;2023-09-18T04:37:18;13.70;;;8.05;;
14094;SDS011;18096;48.142;16.290;2023-09-18T04:39:43;10.67;;;7.60;;
14094;SDS011;18096;48.142;16.290;2023-09-18T04:42:09;13.32;;;8.38;;
14094;SDS011;18096;48.142;16.290;2023-09-18T04:44:35;10.10;;;7.70;;
14094;SDS011;18096;48.142;16.290;2023-09-18T04:47:01;12.83;;;7.73;;
14094;SDS011;18096;48.142;16.290;2023-09-18T04:49:26;12.00;;;8.50;;
14094;SDS011;18096;48.142;16.290;2023-09-18T04:51:53;15.32;;;9.20;;
14094;SDS011;18096;48.142;16.290;2023-09-18T04:54:19;10.48;;;7.35;;
14094;SDS011;18096;48.142;16.290;2023-09-18T04:56:44;13.80;;;8.20;;
14094;SDS011;18096;48.142;16.290;2023-09-18T04:59:10;12.23;;;8.45;;
14094;SDS011;18096;48.142;16.290;2023-09-18T05:01:36;8.80;;;7.90;;
14094;SDS011;18096;48.142;16.290;2023-09-18T05:04:01;9.20;;;7.03;;
14094;SDS011;18096;48.142;16.290;2023-09-18T05:06:27;10.90;;;8.40;;
14094;SDS011;18096;48.142;16.290;2023-09-18T05:08:53;17.05;;;9.63;;
14094;SDS011;18096;48.142;16.290;2023-09-18T05:11:20;16.10;;;10.30;;
14094;SDS011;18096;48.142;16.290;2023-09-18T05:13:46;12.93;;;8.98;;
14094;SDS011;18096;48.142;16.290;2023-09-18T05:16:11;11.57;;;8.73;;
14094;SDS011;18096;48.142;16.290;2023-09-18T05:18:38;14.35;;;8.90;;
14094;SDS011;18096;48.142;16.290;2023-09-18T05:21:04;12.67;;;8.20;;
14094;SDS011;18096;48.142;16.290;2023-09-18T05:23:30;12.23;;;8.15;;
14094;SDS011;18096;48.142;16.290;2023-09-18T05:25:55;15.45;;;8.18;;
14094;SDS011;18096;48.142;16.290;2023-09-18T05:28:21;12.07;;;8.00;;
14094;SDS011;18096;48.142;16.290;2023-09-18T05:30:47;11.45;;;6.88;;
14094;SDS011;18096;48.142;16.290;2023-09-18T05:33:12;15.90;;;7.33;;
14094;SDS011;18096;48.142;16.290;2023-09-18T05:35:42;9.30;;;6.75;;
14094;SDS011;18096;48.142;16.290;2023-09-18T05:38:10;14.65;;;6.80;;
14094;SDS011;18096;48.142;16.290;2023-09-18T05:40:38;9.68;;;6.53;;
14094;SDS011;18096;48.142;16.290;2023-09-18T05:43:04;9.38;;;6.80;;
14094;SDS011;18096;48.142;16.290;2023-09-18T05:45:31;8.97;;;7.40;;
14094;SDS011;18096;48.142;16.290;2023-09-18T05:47:57;10.02;;;6.82;;
14094;SDS011;18096;48.142;16.290;2023-09-18T05:50:28;9.88;;;6.60;;
14094;SDS011;18096;48.142;16.290;2023-09-18T05:52:59;9.20;;;6.90;;
14094;SDS011;18096;48.142;16.290;2023-09-18T05:55:28;8.25;;;6.65;;
14094;SDS011;18096;48.142;16.290;2023-09-18T05:57:55;11.18;;;7.60;;
14094;SDS011;18096;48.142;16.290;2023-09-18T06:00:22;13.82;;;8.23;;
14094;SDS011;18096;48.142;16.290;2023-09-18T06:02:48;10.25;;;6.78;;
14094;SDS011;18096;48.142;16.290;2023-09-18T06:05:16;11.13;;;6.88;;
14094;SDS011;18096;48.142;16.290;2023-09-18T06:07:42;9.48;;;7.60;;
14094;SDS011;18096;48.142;16.290;2023-09-18T06:10:09;9.43;;;7.30;;
14094;SDS011;18096;48.142;16.290;2023-09-18T06:12:37;15.20;;;7.40;;
14094;SDS011;18096;48.142;16.290;2023-09-18T06:15:05;19.88;;;9.20;;
14094;SDS011;18096;48.142;16.290;2023-09-18T06:17:34;12.93;;;8.20;;
14094;SDS011;18096;48.142;16.290;2023-09-18T06:20:01;29.07;;;7.60;;
14094;SDS011;18096;48.142;16.290;2023-09-18T06:22:28;13.63;;;7.90;;
14094;SDS011;18096;48.142;16.290;2023-09-18T06:24:54;10.70;;;6.78;;
14094;SDS011;18096;48.142;16.290;2023-09-18T06:27:20;12.90;;;7.40;;
14094;SDS011;18096;48.142;16.290;2023-09-18T06:29:45;9.02;;;6.60;;
14094;SDS011;18096;48.142;16.290;2023-09-18T06:32:11;10.27;;;6.60;;
14094;SDS011;18096;48.142;16.290;2023-09-18T06:34:37;7.95;;;6.50;;
14094;SDS011;18096;48.142;16.290;2023-09-18T06:37:03;11.13;;;6.90;;
14094;SDS011;18096;48.142;16.290;2023-09-18T06:39:29;14.43;;;7.90;;
14094;SDS011;18096;48.142;16.290;2023-09-18T06:41:54;8.93;;;7.07;;
14094;SDS011;18096;48.142;16.290;2023-09-18T06:44:20;9.10;;;7.07;;
14094;SDS011;18096;48.142;16.290;2023-09-18T06:46:48;8.80;;;6.93;;
14094;SDS011;18096;48.142;16.290;2023-09-18T06:49:14;8.75;;;6.28;;
14094;SDS011;18096;48.142;16.290;2023-09-18T06:51:39;8.67;;;6.67;;
14094;SDS011;18096;48.142;16.290;2023-09-18T06:54:05;11.85;;;6.50;;
14094;SDS011;18096;48.142;16.290;2023-09-18T06:56:31;17.73;;;7.70;;
14094;SDS011;18096;48.142;16.290;2023-09-18T06:58:56;16.50;;;6.63;;
14094;SDS011;18096;48.142;16.290;2023-09-18T07:01:22;8.70;;;6.30;;
14094;SDS011;18096;48.142;16.290;2023-09-18T07:03:49;7.07;;;5.90;;
14094;SDS011;18096;48.142;16.290;2023-09-18T07:06:15;10.00;;;6.93;;
14094;SDS011;18096;48.142;16.290;2023-09-18T07:08:44;6.70;;;5.80;;
14094;SDS011;18096;48.142;16.290;2023-09-18T07:11:10;11.38;;;6.85;;
14094;SDS011;18096;48.142;16.290;2023-09-18T07:13:36;10.43;;;6.78;;
14094;SDS011;18096;48.142;16.290;2023-09-18T07:16:03;10.25;;;6.40;;
14094;SDS011;18096;48.142;16.290;2023-09-18T07:18:28;15.67;;;6.40;;
14094;SDS011;18096;48.142;16.290;2023-09-18T07:20:54;9.93;;;6.57;;
14094;SDS011;18096;48.142;16.290;2023-09-18T07:23:19;6.97;;;5.60;;
14094;SDS011;18096;48.142;16.290;2023-09-18T07:25:47;7.37;;;5.20;;
14094;SDS011;18096;48.142;16.290;2023-09-18T07:28:13;7.75;;;5.80;;
14094;SDS011;18096;48.142;16.290;2023-09-18T07:30:42;5.97;;;5.38;;
14094;SDS011;18096;48.142;16.290;2023-09-18T07:33:12;8.70;;;6.10;;
14094;SDS011;18096;48.142;16.290;2023-09-18T07:35:40;7.68;;;5.60;;
14094;SDS011;18096;48.142;16.290;2023-09-18T07:38:06;8.18;;;5.47;;
14094;SDS011;18096;48.142;16.290;2023-09-18T07:40:33;5.93;;;4.70;;
14094;SDS011;18096;48.142;16.290;2023-09-18T07:42:58;7.27;;;6.07;;
14094;SDS011;18096;48.142;16.290;2023-09-18T07:45:24;9.90;;;5.88;;
14094;SDS011;18096;48.142;16.290;2023-09-18T07:47:50;11.17;;;5.90;;
14094;SDS011;18096;48.142;16.290;2023-09-18T07:50:15;9.18;;;6.43;;
14094;SDS011;18096;48.142;16.290;2023-09-18T07:52:42;6.75;;;5.32;;
14094;SDS011;18096;48.142;16.290;2023-09-18T07:55:07;6.67;;;4.80;;
14094;SDS011;18096;48.142;16.290;2023-09-18T07:57:34;6.43;;;4.40;;
14094;SDS011;18096;48.142;16.290;2023-09-18T08:00:01;7.85;;;5.32;;
14094;SDS011;18096;48.142;16.290;2023-09-18T08:02:33;6.57;;;4.70;;
14094;SDS011;18096;48.142;16.290;2023-09-18T08:05:00;5.70;;;4.70;;
14094;SDS011;18096;48.142;16.290;2023-09-18T08:07:27;6.13;;;4.38;;
14094;SDS011;18096;48.142;16.290;2023-09-18T08:09:53;4.32;;;3.92;;
14094;SDS011;18096;48.142;16.290;2023-09-18T08:12:19;7.93;;;4.40;;
14094;SDS011;18096;48.142;16.290;2023-09-18T08:14:44;7.53;;;4.35;;
14094;SDS011;18096;48.142;16.290;2023-09-18T08:17:10;7.17;;;4.40;;
14094;SDS011;18096;48.142;16.290;2023-09-18T08:19:36;6.72;;;4.35;;
14094;SDS011;18096;48.142;16.290;2023-09-18T08:22:02;10.65;;;4.00;;
14094;SDS011;18096;48.142;16.290;2023-09-18T08:24:30;6.53;;;4.30;;
14094;SDS011;18096;48.142;16.290;2023-09-18T08:26:56;5.13;;;3.80;;
14094;SDS011;18096;48.142;16.290;2023-09-18T08:29:22;11.13;;;3.93;;
14094;SDS011;18096;48.142;16.290;2023-09-18T08:31:48;4.72;;;3.90;;
14094;SDS011;18096;48.142;16.290;2023-09-18T08:34:17;7.40;;;3.70;;
14094;SDS011;18096;48.142;16.290;2023-09-18T08:36:42;14.77;;;3.72;;
14094;SDS011;18096;48.142;16.290;2023-09-18T08:39:08;18.10;;;4.30;;
14094;SDS011;18096;48.142;16.290;2023-09-18T08:41:36;8.32;;;3.90;;
14094;SDS011;18096;48.142;16.290;2023-09-18T08:44:06;5.93;;;3.85;;
14094;SDS011;18096;48.142;16.290;2023-09-18T08:46:34;6.20;;;3.70;;
14094;SDS011;18096;48.142;16.290;2023-09-18T08:49:00;7.80;;;4.13;;
14094;SDS011;18096;48.142;16.290;2023-09-18T08:51:26;21.60;;;3.72;;
14094;SDS011;18096;48.142;16.290;2023-09-18T08:53:53;15.38;;;3.53;;
14094;SDS011;18096;48.142;16.290;2023-09-18T08:56:19;21.73;;;4.82;;
14094;SDS011;18096;48.142;16.290;2023-09-18T08:58:47;10.33;;;4.50;;
14094;SDS011;18096;48.142;16.290;2023-09-18T09:01:13;4.40;;;3.60;;
14094;SDS011;18096;48.142;16.290;2023-09-18T09:03:39;16.10;;;3.90;;
14094;SDS011;18096;48.142;16.290;2023-09-18T09:06:07;8.13;;;3.30;;
14094;SDS011;18096;48.142;16.290;2023-09-18T09:08:34;15.80;;;3.30;;
14094;SDS011;18096;48.142;16.290;2023-09-18T09:11:00;11.10;;;4.00;;
14094;SDS011;18096;48.142;16.290;2023-09-18T09:13:26;13.27;;;3.90;;
14094;SDS011;18096;48.142;16.290;2023-09-18T09:15:53;13.55;;;3.50;;
14094;SDS011;18096;48.142;16.290;2023-09-18T09:18:23;13.50;;;3.80;;
14094;SDS011;18096;48.142;16.290;2023-09-18T09:20:53;20.63;;;3.67;;
14094;SDS011;18096;48.142;16.290;2023-09-18T09:23:29;14.30;;;3.50;;
14094;SDS011;18096;48.142;16.290;2023-09-18T09:26:13;4.88;;;3.67;;
14094;SDS011;18096;48.142;16.290;2023-09-18T09:28:43;11.00;;;3.80;;
14094;SDS011;18096;48.142;16.290;2023-09-18T09:31:09;42.10;;;5.20;;
14094;SDS011;18096;48.142;16.290;2023-09-18T09:33:35;12.50;;;5.20;;
14094;SDS011;18096;48.142;16.290;2023-09-18T09:36:04;5.90;;;4.40;;
14094;SDS011;18096;48.142;16.290;2023-09-18T09:38:31;11.05;;;4.68;;
14094;SDS011;18096;48.142;16.290;2023-09-18T09:40:59;14.37;;;4.57;;
14094;SDS011;18096;48.142;16.290;2023-09-18T09:43:26;14.65;;;4.35;;
14094;SDS011;18096;48.142;16.290;2023-09-18T09:45:58;8.30;;;3.57;;
14094;SDS011;18096;48.142;16.290;2023-09-18T09:48:28;4.95;;;3.45;;
14094;SDS011;18096;48.142;16.290;2023-09-18T09:50:58;3.90;;;3.60;;
14094;SDS011;18096;48.142;16.290;2023-09-18T09:53:44;10.07;;;4.03;;
14094;SDS011;18096;48.142;16.290;2023-09-18T09:56:15;12.40;;;3.90;;
14094;SDS011;18096;48.142;16.290;2023-09-18T09:59:00;8.75;;;4.20;;
14094;SDS011;18096;48.142;16.290;2023-09-18T10:01:28;9.38;;;3.00;;
14094;SDS011;18096;48.142;16.290;2023-09-18T10:03:56;14.88;;;3.50;;
14094;SDS011;18096;48.142;16.290;2023-09-18T10:06:23;12.52;;;3.88;;
14094;SDS011;18096;48.142;16.290;2023-09-18T10:08:50;11.30;;;3.40;;
14094;SDS011;18096;48.142;16.290;2023-09-18T10:11:16;4.20;;;3.17;;
14094;SDS011;18096;48.142;16.290;2023-09-18T10:13:46;12.93;;;3.80;;
14094;SDS011;18096;48.142;16.290;2023-09-18T10:16:17;14.02;;;4.05;;
14094;SDS011;18096;48.142;16.290;2023-09-18T10:21:50;11.13;;;5.03;;
14094;SDS011;18096;48.142;16.290;2023-09-18T10:24:19;13.90;;;5.47;;
14094;SDS011;18096;48.142;16.290;2023-09-18T10:26:55;7.82;;;3.90;;
14094;SDS011;18096;48.142;16.290;2023-09-18T10:29:23;15.13;;;4.43;;
14094;SDS011;18096;48.142;16.290;2023-09-18T10:31:50;8.60;;;3.70;;
14094;SDS011;18096;48.142;16.290;2023-09-18T10:34:17;8.63;;;4.03;;
14094;SDS011;18096;48.142;16.290;2023-09-18T10:36:44;6.50;;;3.75;;
14094;SDS011;18096;48.142;16.290;2023-09-18T10:39:12;11.80;;;5.20;;
14094;SDS011;18096;48.142;16.290;2023-09-18T10:41:39;17.63;;;6.53;;
14094;SDS011;18096;48.142;16.290;2023-09-18T10:44:06;8.82;;;6.20;;
14094;SDS011;18096;48.142;16.290;2023-09-18T10:46:33;13.17;;;5.10;;
14094;SDS011;18096;48.142;16.290;2023-09-18T10:49:00;10.30;;;3.92;;
14094;SDS011;18096;48.142;16.290;2023-09-18T10:51:28;9.73;;;3.90;;
14094;SDS011;18096;48.142;16.290;2023-09-18T10:53:56;9.65;;;3.50;;
14094;SDS011;18096;48.142;16.290;2023-09-18T10:56:21;5.82;;;4.25;;
14094;SDS011;18096;48.142;16.290;2023-09-18T10:58:55;13.18;;;4.93;;
14094;SDS011;18096;48.142;16.290;2023-09-18T11:01:23;5.63;;;4.43;;
14094;SDS011;18096;48.142;16.290;2023-09-18T11:03:52;16.92;;;5.10;;
14094;SDS011;18096;48.142;16.290;2023-09-18T11:06:18;8.38;;;5.80;;
14094;SDS011;18096;48.142;16.290;2023-09-18T11:08:47;8.17;;;4.30;;
14094;SDS011;18096;48.142;16.290;2023-09-18T11:11:16;7.05;;;3.35;;
14094;SDS011;18096;48.142;16.290;2023-09-18T11:13:50;8.88;;;3.40;;
14094;SDS011;18096;48.142;16.290;2023-09-18T11:21:29;18.17;;;7.28;;
14094;SDS011;18096;48.142;16.290;2023-09-18T11:23:59;10.63;;;5.73;;
14094;SDS011;18096;48.142;16.290;2023-09-18T11:26:43;8.20;;;4.55;;
14094;SDS011;18096;48.142;16.290;2023-09-18T11:29:13;11.00;;;4.87;;
14094;SDS011;18096;48.142;16.290;2023-09-18T11:31:44;21.98;;;4.30;;
14094;SDS011;18096;48.142;16.290;2023-09-18T11:34:19;6.50;;;4.35;;
14094;SDS011;18096;48.142;16.290;2023-09-18T11:36:47;9.52;;;3.90;;
14094;SDS011;18096;48.142;16.290;2023-09-18T11:39:14;4.40;;;4.00;;
14094;SDS011;18096;48.142;16.290;2023-09-18T11:42:10;7.40;;;3.70;;
14094;SDS011;18096;48.142;16.290;2023-09-18T11:44:42;4.68;;;3.75;;
14094;SDS011;18096;48.142;16.290;2023-09-18T11:47:12;8.60;;;4.60;;
14094;SDS011;18096;48.142;16.290;2023-09-18T11:49:50;11.40;;;4.60;;
14094;SDS011;18096;48.142;16.290;2023-09-18T11:52:23;8.20;;;4.00;;
14094;SDS011;18096;48.142;16.290;2023-09-18T11:54:50;19.40;;;5.22;;
14094;SDS011;18096;48.142;16.290;2023-09-18T11:57:19;18.45;;;4.63;;
14094;SDS011;18096;48.142;16.290;2023-09-18T11:59:45;10.38;;;4.55;;
14094;SDS011;18096;48.142;16.290;2023-09-18T12:02:32;6.80;;;4.50;;
14094;SDS011;18096;48.142;16.290;2023-09-18T12:05:11;7.80;;;4.30;;
14094;SDS011;18096;48.142;16.290;2023-09-18T12:07:36;10.45;;;4.35;;
14094;SDS011;18096;48.142;16.290;2023-09-18T12:10:04;8.83;;;4.43;;
14094;SDS011;18096;48.142;16.290;2023-09-18T12:12:31;7.03;;;3.75;;
14094;SDS011;18096;48.142;16.290;2023-09-18T12:14:57;13.10;;;5.07;;
14094;SDS011;18096;48.142;16.290;2023-09-18T12:17:23;12.70;;;4.43;;
14094;SDS011;18096;48.142;16.290;2023-09-18T12:19:54;13.90;;;4.22;;
14094;SDS011;18096;48.142;16.290;2023-09-18T12:22:24;13.80;;;4.68;;
14094;SDS011;18096;48.142;16.290;2023-09-18T12:25:07;16.23;;;4.70;;
14094;SDS011;18096;48.142;16.290;2023-09-18T12:27:37;10.20;;;4.30;;
14094;SDS011;18096;48.142;16.290;2023-09-18T12:30:03;9.75;;;4.05;;
14094;SDS011;18096;48.142;16.290;2023-09-18T12:32:30;11.70;;;5.00;;
14094;SDS011;18096;48.142;16.290;2023-09-18T12:34:57;15.02;;;5.40;;
14094;SDS011;18096;48.142;16.290;2023-09-18T12:37:23;8.50;;;4.30;;
14094;SDS011;18096;48.142;16.290;2023-09-18T12:39:50;11.27;;;5.95;;
14094;SDS011;18096;48.142;16.290;2023-09-18T12:42:17;17.65;;;5.30;;
14094;SDS011;18096;48.142;16.290;2023-09-18T12:44:45;10.73;;;4.95;;
14094;SDS011;18096;48.142;16.290;2023-09-18T12:47:12;6.80;;;4.20;;
14094;SDS011;18096;48.142;16.290;2023-09-18T12:49:38;7.85;;;3.90;;
14094;SDS011;18096;48.142;16.290;2023-09-18T12:52:05;11.77;;;4.90;;
14094;SDS011;18096;48.142;16.290;2023-09-18T12:54:43;9.73;;;5.10;;
14094;SDS011;18096;48.142;16.290;2023-09-18T12:57:11;17.42;;;5.10;;
14094;SDS011;18096;48.142;16.290;2023-09-18T12:59:40;9.90;;;7.13;;
14094;SDS011;18096;48.142;16.290;2023-09-18T13:02:06;11.30;;;6.47;;
14094;SDS011;18096;48.142;16.290;2023-09-18T13:04:35;15.13;;;6.60;;
14094;SDS011;18096;48.142;16.290;2023-09-18T13:07:14;10.00;;;6.90;;
14094;SDS011;18096;48.142;16.290;2023-09-18T13:09:40;7.60;;;6.45;;
14094;SDS011;18096;48.142;16.290;2023-09-18T13:12:07;12.68;;;5.07;;
14094;SDS011;18096;48.142;16.290;2023-09-18T13:17:25;7.72;;;4.80;;
14094;SDS011;18096;48.142;16.290;2023-09-18T13:19:52;9.43;;;4.55;;
14094;SDS011;18096;48.142;16.290;2023-09-18T13:22:24;8.75;;;4.72;;
14094;SDS011;18096;48.142;16.290;2023-09-18T13:24:54;7.80;;;6.00;;
14094;SDS011;18096;48.142;16.290;2023-09-18T13:27:21;9.75;;;5.68;;
14094;SDS011;18096;48.142;16.290;2023-09-18T13:29:48;9.55;;;5.55;;
14094;SDS011;18096;48.142;16.290;2023-09-18T13:32:14;16.23;;;5.73;;
14094;SDS011;18096;48.142;16.290;2023-09-18T13:34:40;11.93;;;5.30;;
14094;SDS011;18096;48.142;16.290;2023-09-18T13:37:05;10.20;;;4.53;;
14094;SDS011;18096;48.142;16.290;2023-09-18T13:39:31;11.27;;;4.30;;
14094;SDS011;18096;48.142;16.290;2023-09-18T13:41:57;9.38;;;4.85;;
14094;SDS011;18096;48.142;16.290;2023-09-18T13:44:22;29.07;;;4.80;;
14094;SDS011;18096;48.142;16.290;2023-09-18T13:46:48;8.05;;;3.90;;
14094;SDS011;18096;48.142;16.290;2023-09-18T13:49:14;12.48;;;4.80;;
14094;SDS011;18096;48.142;16.290;2023-09-18T13:51:39;10.03;;;4.47;;
14094;SDS011;18096;48.142;16.290;2023-09-18T13:54:05;13.77;;;4.50;;
14094;SDS011;18096;48.142;16.290;2023-09-18T13:56:32;16.13;;;4.47;;
14094;SDS011;18096;48.142;16.290;2023-09-18T13:58:58;10.77;;;4.70;;
14094;SDS011;18096;48.142;16.290;2023-09-18T14:01:24;14.45;;;5.07;;
14094;SDS011;18096;48.142;16.290;2023-09-18T14:03:53;12.10;;;4.85;;
14094;SDS011;18096;48.142;16.290;2023-09-18T14:06:19;16.20;;;4.85;;
14094;SDS011;18096;48.142;16.290;2023-09-18T14:08:44;14.80;;;4.63;;
14094;SDS011;18096;48.142;16.290;2023-09-18T14:11:10;17.52;;;4.80;;
14094;SDS011;18096;48.142;16.290;2023-09-18T14:13:36;14.82;;;5.50;;
14094;SDS011;18096;48.142;16.290;2023-09-18T14:16:01;12.30;;;5.03;;
14094;SDS011;18096;48.142;16.290;2023-09-18T14:18:28;9.13;;;4.70;;
14094;SDS011;18096;48.142;16.290;2023-09-18T14:20:54;12.80;;;4.93;;
14094;SDS011;18096;48.142;16.290;2023-09-18T14:23:20;13.30;;;4.70;;
14094;SDS011;18096;48.142;16.290;2023-09-18T14:25:46;20.13;;;5.60;;
14094;SDS011;18096;48.142;16.290;2023-09-18T14:28:12;24.73;;;5.00;;
14094;SDS011;18096;48.142;16.290;2023-09-18T14:30:38;16.25;;;4.90;;
14094;SDS011;18096;48.142;16.290;2023-09-18T14:33:04;8.20;;;4.10;;
14094;SDS011;18096;48.142;16.290;2023-09-18T14:35:30;9.47;;;4.10;;
14094;SDS011;18096;48.142;16.290;2023-09-18T14:37:56;10.80;;;5.22;;
14094;SDS011;18096;48.142;16.290;2023-09-18T14:40:22;9.95;;;4.85;;
14094;SDS011;18096;48.142;16.290;2023-09-18T14:42:48;5.90;;;4.50;;